Time;durP1;ratioP1;P1;durP2;ratioP2;P2;SDS_P1;SDS_P2;PMS_P1;PMS_P2;Temp;Humidity;BMP_temperature;BMP_pressure;BME280_temperature;BME280_humidity;BME280_pressure;Samples;Min_cycle;Max_cycle;Signal;HPM_P1;HPM_P2
2021/01/23 00:00:07;;;;;;;0.20;0.20;;;5.60;98.10;;;;;;4116782;28;20054;-89
2021/01/23 00:02:08;;;;;;;0.10;0.10;;;5.60;98.00;;;;;;4140648;28;20102;-90
2021/01/23 00:04:09;;;;;;;0.10;0.10;;;5.60;98.30;;;;;;4122031;28;20058;-90
2021/01/23 00:06:11;;;;;;;0.22;0.22;;;5.60;98.00;;;;;;4120823;28;20050;-90
2021/01/23 00:08:13;;;;;;;0.10;0.10;;;5.60;98.10;;;;;;4105275;28;20051;-92
2021/01/23 00:10:15;;;;;;;0.20;0.20;;;5.60;97.70;;;;;;4137984;28;20054;-89
2021/01/23 00:12:16;;;;;;;0.75;0.15;;;5.60;97.70;;;;;;4121005;28;20047;-90
2021/01/23 00:14:17;;;;;;;1.08;0.30;;;5.60;98.10;;;;;;4120204;28;20568;-90
2021/01/23 00:16:18;;;;;;;0.10;0.10;;;5.60;98.10;;;;;;4146116;28;20132;-89
2021/01/23 00:18:20;;;;;;;0.82;0.82;;;5.60;98.40;;;;;;4123942;28;20050;-89
2021/01/23 00:20:21;;;;;;;0.10;0.10;;;5.60;98.80;;;;;;4134117;28;20042;-89
2021/01/23 00:22:22;;;;;;;0.22;0.22;;;5.50;98.70;;;;;;4120765;28;20578;-89
2021/01/23 00:24:23;;;;;;;0.22;0.22;;;5.60;98.50;;;;;;4121431;28;20209;-89
2021/01/23 00:26:25;;;;;;;0.10;0.10;;;5.50;98.80;;;;;;4134233;28;20050;-89
2021/01/23 00:28:26;;;;;;;0.10;0.10;;;5.50;99.20;;;;;;4120346;28;20411;-90
2021/01/23 00:30:27;;;;;;;0.68;0.50;;;5.50;99.30;;;;;;4121182;28;20050;-90
2021/01/23 00:32:28;;;;;;;0.10;0.10;;;5.60;98.70;;;;;;4118662;28;20050;-90
2021/01/23 00:34:30;;;;;;;0.40;0.40;;;5.50;98.50;;;;;;4151946;28;20536;-90
2021/01/23 00:36:31;;;;;;;1.27;0.60;;;5.50;98.80;;;;;;4123131;28;20046;-90
2021/01/23 00:38:32;;;;;;;2.83;0.30;;;5.60;98.70;;;;;;4129095;28;20055;-90
2021/01/23 00:40:34;;;;;;;0.43;0.25;;;5.50;98.90;;;;;;4135557;28;20422;-89
2021/01/23 00:42:35;;;;;;;0.75;0.32;;;5.50;98.70;;;;;;4120535;28;20057;-90
2021/01/23 00:44:36;;;;;;;0.20;0.20;;;5.60;98.80;;;;;;4135954;28;20069;-88
2021/01/23 00:46:38;;;;;;;0.22;0.20;;;5.60;99.10;;;;;;4118146;28;20061;-89
2021/01/23 00:48:39;;;;;;;0.40;0.30;;;5.60;99.00;;;;;;4128316;28;20137;-90
2021/01/23 00:50:40;;;;;;;0.20;0.20;;;5.50;99.30;;;;;;4145441;28;20045;-90
2021/01/23 00:52:42;;;;;;;0.20;0.20;;;5.50;99.40;;;;;;4134273;28;20074;-92
2021/01/23 00:54:43;;;;;;;0.88;0.73;;;5.50;99.00;;;;;;4120848;28;20633;-89
2021/01/23 00:56:45;;;;;;;0.30;0.30;;;5.60;99.00;;;;;;4129297;28;20066;-89
2021/01/23 00:58:46;;;;;;;0.30;0.30;;;5.60;99.20;;;;;;4133285;28;20082;-90
2021/01/23 01:00:47;;;;;;;0.10;0.10;;;5.50;99.40;;;;;;4117665;28;20050;-90
2021/01/23 01:02:49;;;;;;;1.85;0.28;;;5.50;99.40;;;;;;4140963;28;20049;-90
2021/01/23 01:04:50;;;;;;;1.08;0.98;;;5.50;99.40;;;;;;4132486;28;20054;-91
2021/01/23 01:06:52;;;;;;;0.32;0.32;;;5.50;99.90;;;;;;4120148;28;20150;-91
2021/01/23 01:08:53;;;;;;;0.10;0.10;;;5.40;99.90;;;;;;4120778;28;20049;-90
2021/01/23 01:10:54;;;;;;;0.63;0.30;;;5.40;99.90;;;;;;4116724;28;20082;-90
2021/01/23 01:12:56;;;;;;;0.10;0.10;;;5.40;99.60;;;;;;4142058;28;20054;-90
2021/01/23 01:14:57;;;;;;;0.13;0.10;;;5.40;99.40;;;;;;4126577;28;20062;-89
2021/01/23 01:16:58;;;;;;;0.10;0.10;;;5.50;99.20;;;;;;4132566;28;20418;-89
2021/01/23 01:19:00;;;;;;;0.30;0.30;;;5.40;99.90;;;;;;4118537;28;20106;-89
2021/01/23 01:21:01;;;;;;;0.10;0.10;;;5.40;99.60;;;;;;4136471;28;20414;-90
2021/01/23 01:23:02;;;;;;;0.32;0.30;;;5.50;99.80;;;;;;4132335;28;20058;-90
2021/01/23 01:25:05;;;;;;;1.75;0.60;;;5.40;99.90;;;;;;4121096;28;20057;-90
2021/01/23 01:27:06;;;;;;;1.00;0.65;;;5.30;99.90;;;;;;4136489;28;20050;-90
2021/01/23 01:29:07;;;;;;;0.30;0.30;;;5.30;99.90;;;;;;4116265;28;20119;-92
2021/01/23 01:31:09;;;;;;;5.75;0.50;;;5.30;99.90;;;;;;4136585;28;20120;-90
2021/01/23 01:33:10;;;;;;;0.20;0.20;;;5.20;99.90;;;;;;4120127;28;20055;-89
2021/01/23 01:35:12;;;;;;;0.25;0.25;;;5.30;99.90;;;;;;4131966;28;20105;-90
2021/01/23 01:37:13;;;;;;;0.20;0.20;;;5.20;99.90;;;;;;4120601;28;20047;-89
2021/01/23 01:39:15;;;;;;;0.10;0.10;;;5.20;99.90;;;;;;4136626;28;20149;-91
2021/01/23 01:41:16;;;;;;;0.38;0.32;;;5.20;99.90;;;;;;4116305;28;20170;-89
2021/01/23 01:43:18;;;;;;;0.10;0.10;;;5.10;99.90;;;;;;4132345;28;20054;-89
2021/01/23 01:45:19;;;;;;;1.30;1.20;;;5.20;99.90;;;;;;4132571;28;20133;-90
2021/01/23 01:47:21;;;;;;;0.10;0.10;;;5.20;99.90;;;;;;4116283;28;20137;-90
2021/01/23 01:49:22;;;;;;;1.48;0.38;;;5.10;99.90;;;;;;4135899;28;20081;-90
2021/01/23 01:51:23;;;;;;;0.10;0.10;;;5.10;99.90;;;;;;4120195;28;20060;-89
2021/01/23 01:53:25;;;;;;;0.20;0.20;;;5.20;99.90;;;;;;4150608;28;20145;-89
2021/01/23 01:55:31;;;;;;;0.73;0.30;;;5.20;99.90;;;;;;4142033;28;20145;-89
2021/01/23 01:57:32;;;;;;;0.10;0.10;;;5.10;99.90;;;;;;4127555;28;20443;-90
2021/01/23 01:59:33;;;;;;;0.15;0.15;;;5.10;99.90;;;;;;4148694;28;20142;-90
2021/01/23 02:01:35;;;;;;;0.95;0.30;;;5.10;99.90;;;;;;4119131;28;20042;-91
2021/01/23 02:03:45;;;;;;;0.22;0.22;;;5.10;99.90;;;;;;4140667;28;20062;-90
2021/01/23 02:06:04;;;;;;;0.10;0.10;;;5.10;99.90;;;;;;4151724;28;20042;-89
2021/01/23 02:08:13;;;;;;;0.10;0.10;;;5.20;99.90;;;;;;4147570;28;20064;-90
2021/01/23 02:10:39;;;;;;;0.17;0.17;;;5.20;99.90;;;;;;4144884;28;20065;-89
2021/01/23 02:13:06;;;;;;;0.35;0.35;;;5.10;99.90;;;;;;4135735;28;20519;-90
2021/01/23 02:15:12;;;;;;;0.10;0.10;;;5.10;99.90;;;;;;4133738;28;20045;-89
2021/01/23 02:17:14;;;;;;;0.10;0.10;;;5.20;99.90;;;;;;4116071;28;20133;-89
2021/01/23 02:19:28;;;;;;;0.20;0.20;;;5.10;99.90;;;;;;4123822;28;20502;-89
2021/01/23 02:21:36;;;;;;;0.28;0.20;;;5.10;99.90;;;;;;4154335;28;20455;-89
2021/01/23 02:23:38;;;;;;;0.10;0.10;;;5.10;99.90;;;;;;4135342;28;20052;-90
2021/01/23 02:26:03;;;;;;;0.20;0.20;;;5.10;99.90;;;;;;4132140;28;20054;-89
2021/01/23 02:28:22;;;;;;;0.10;0.10;;;5.10;99.90;;;;;;4134258;28;20058;-89
2021/01/23 02:30:37;;;;;;;0.20;0.17;;;5.20;99.90;;;;;;4119423;28;20051;-89
2021/01/23 02:32:39;;;;;;;0.20;0.20;;;5.20;99.90;;;;;;4117877;28;20050;-89
2021/01/23 02:34:40;;;;;;;0.10;0.10;;;5.10;99.90;;;;;;4132590;28;20046;-89
2021/01/23 02:36:41;;;;;;;0.10;0.10;;;5.10;99.90;;;;;;4134594;28;20050;-89
2021/01/23 02:38:43;;;;;;;3.72;1.30;;;5.10;99.90;;;;;;4119002;28;20057;-89
2021/01/23 02:40:44;;;;;;;0.20;0.20;;;5.10;99.90;;;;;;4116189;28;20051;-89
2021/01/23 02:42:48;;;;;;;0.10;0.10;;;5.10;99.90;;;;;;4135250;28;20064;-88
2021/01/23 02:44:49;;;;;;;0.30;0.30;;;5.20;99.90;;;;;;4115659;28;20142;-89
2021/01/23 02:46:52;;;;;;;0.28;0.25;;;5.30;99.90;;;;;;4130402;28;20064;-89
2021/01/23 02:48:53;;;;;;;0.20;0.20;;;5.20;99.90;;;;;;4118970;28;20459;-90
2021/01/23 02:50:55;;;;;;;0.20;0.20;;;5.20;99.90;;;;;;4127110;28;20167;-90
2021/01/23 02:53:05;;;;;;;1.05;1.05;;;5.10;99.90;;;;;;4129709;28;20058;-90
2021/01/23 02:55:14;;;;;;;0.75;0.75;;;5.10;99.90;;;;;;4120460;28;20055;-89
2021/01/23 02:57:18;;;;;;;5.03;1.48;;;5.10;99.90;;;;;;4115457;28;20046;-89
2021/01/23 02:59:20;;;;;;;0.38;0.28;;;5.10;99.90;;;;;;4120342;28;20188;-89
2021/01/23 03:01:22;;;;;;;0.30;0.20;;;5.10;99.90;;;;;;4134955;28;20077;-89
2021/01/23 03:03:24;;;;;;;0.77;0.40;;;5.00;99.90;;;;;;4136263;28;20042;-88
2021/01/23 03:05:25;;;;;;;0.20;0.20;;;4.90;99.90;;;;;;4126582;28;20051;-89
2021/01/23 03:07:27;;;;;;;0.30;0.30;;;4.90;99.90;;;;;;4134035;28;20060;-89
2021/01/23 03:09:28;;;;;;;0.57;0.20;;;4.90;99.90;;;;;;4135586;28;20053;-89
2021/01/23 03:11:29;;;;;;;0.10;0.10;;;4.80;99.90;;;;;;4132133;28;20054;-90
2021/01/23 03:13:30;;;;;;;0.50;0.30;;;4.90;99.90;;;;;;4117507;28;20050;-89
2021/01/23 03:15:32;;;;;;;0.20;0.20;;;4.90;99.90;;;;;;4118799;28;20058;-90
2021/01/23 03:17:33;;;;;;;0.10;0.10;;;4.90;99.90;;;;;;4133501;28;20049;-89
2021/01/23 03:19:35;;;;;;;0.10;0.10;;;4.90;99.90;;;;;;4116862;28;20055;-90
2021/01/23 03:21:36;;;;;;;0.28;0.28;;;4.90;99.90;;;;;;4140399;28;20050;-89
2021/01/23 03:23:38;;;;;;;0.10;0.10;;;5.00;99.90;;;;;;4126469;28;20074;-89
2021/01/23 03:25:39;;;;;;;0.32;0.15;;;4.90;99.90;;;;;;4132387;28;20133;-89
2021/01/23 03:27:40;;;;;;;0.10;0.10;;;4.80;99.90;;;;;;4118535;28;20519;-89
2021/01/23 03:29:41;;;;;;;0.20;0.20;;;4.80;99.90;;;;;;4134149;28;20137;-89
2021/01/23 03:31:43;;;;;;;0.40;0.22;;;4.80;99.90;;;;;;4131972;28;20439;-89
2021/01/23 03:33:45;;;;;;;0.20;0.20;;;4.80;99.90;;;;;;4135255;28;20081;-89
2021/01/23 03:35:46;;;;;;;0.10;0.10;;;4.80;99.90;;;;;;4110625;28;20042;-89
2021/01/23 03:37:48;;;;;;;0.10;0.10;;;4.80;99.90;;;;;;4115652;28;20058;-89
2021/01/23 03:39:50;;;;;;;1.92;0.93;;;4.80;99.90;;;;;;4122140;28;20059;-89
2021/01/23 03:41:51;;;;;;;0.17;0.17;;;4.80;99.90;;;;;;4146773;28;20054;-90
2021/01/23 03:43:52;;;;;;;0.20;0.20;;;4.80;99.90;;;;;;4133504;28;20130;-89
2021/01/23 03:45:54;;;;;;;0.20;0.20;;;4.80;99.90;;;;;;4123366;28;20051;-89
2021/01/23 03:47:55;;;;;;;0.10;0.10;;;4.80;99.90;;;;;;4122390;28;20053;-89
2021/01/23 03:49:56;;;;;;;0.40;0.20;;;4.90;99.90;;;;;;4133702;28;20050;-90
2021/01/23 03:51:57;;;;;;;0.55;0.55;;;4.80;99.90;;;;;;4122180;28;20054;-89
2021/01/23 03:53:59;;;;;;;1.55;0.35;;;4.90;99.90;;;;;;4138247;28;20054;-89
2021/01/23 03:56:00;;;;;;;0.22;0.22;;;4.90;99.90;;;;;;4117450;28;20055;-89
2021/01/23 03:58:03;;;;;;;0.38;0.38;;;4.90;99.90;;;;;;4138495;28;20105;-89
2021/01/23 04:00:05;;;;;;;0.10;0.10;;;4.90;99.90;;;;;;4121800;28;20667;-89
2021/01/23 04:02:07;;;;;;;0.20;0.20;;;4.90;99.90;;;;;;4129748;28;20048;-89
2021/01/23 04:04:09;;;;;;;0.20;0.20;;;4.90;99.90;;;;;;4138148;28;20050;-90
2021/01/23 04:06:10;;;;;;;0.20;0.20;;;5.00;99.90;;;;;;4137454;28;20164;-89
2021/01/23 04:08:11;;;;;;;0.10;0.10;;;4.90;99.90;;;;;;4117141;28;20110;-89
2021/01/23 04:10:15;;;;;;;0.38;0.28;;;5.00;99.90;;;;;;4121864;28;20070;-89
2021/01/23 04:12:17;;;;;;;0.57;0.40;;;5.00;99.90;;;;;;4133660;28;20561;-89
2021/01/23 04:14:20;;;;;;;0.55;0.25;;;5.00;99.90;;;;;;4118695;28;20082;-89
2021/01/23 04:16:22;;;;;;;1.70;0.40;;;4.90;99.90;;;;;;4137701;28;20053;-90
2021/01/23 04:18:23;;;;;;;0.40;0.40;;;4.90;99.90;;;;;;4118787;28;20559;-89
2021/01/23 04:20:24;;;;;;;0.10;0.10;;;4.90;99.90;;;;;;4123431;28;20057;-89
2021/01/23 04:22:25;;;;;;;0.30;0.30;;;4.90;99.90;;;;;;4120514;28;20043;-89
2021/01/23 04:24:27;;;;;;;0.30;0.20;;;4.80;99.90;;;;;;4142535;28;20049;-89
2021/01/23 04:26:28;;;;;;;0.22;0.22;;;4.80;99.90;;;;;;4145129;28;20038;-89
2021/01/23 04:28:29;;;;;;;0.20;0.20;;;4.80;99.90;;;;;;4120491;28;20149;-90
2021/01/23 04:30:30;;;;;;;0.10;0.10;;;4.80;99.90;;;;;;4124596;28;20059;-89
2021/01/23 04:32:32;;;;;;;0.28;0.28;;;4.70;99.90;;;;;;4127031;28;20521;-89
2021/01/23 04:34:33;;;;;;;1.40;1.30;;;4.70;99.90;;;;;;4148005;28;20054;-89
2021/01/23 04:36:34;;;;;;;0.30;0.15;;;4.70;99.90;;;;;;4138872;28;20507;-89
2021/01/23 04:38:37;;;;;;;0.45;0.45;;;4.70;99.90;;;;;;4118676;28;20054;-89
2021/01/23 04:40:38;;;;;;;0.38;0.25;;;4.70;99.90;;;;;;4135052;28;20057;-89
2021/01/23 04:42:43;;;;;;;0.20;0.20;;;4.60;99.90;;;;;;4120219;28;20134;-89
2021/01/23 04:44:44;;;;;;;0.25;0.20;;;4.60;99.90;;;;;;4118236;28;20058;-89
2021/01/23 04:46:45;;;;;;;0.28;0.28;;;4.60;99.90;;;;;;4149074;28;20046;-89
2021/01/23 04:48:47;;;;;;;0.17;0.17;;;4.60;99.90;;;;;;4124323;28;20054;-89
2021/01/23 04:50:48;;;;;;;0.10;0.10;;;4.60;99.90;;;;;;4123231;28;20701;-90
2021/01/23 04:52:50;;;;;;;3.22;1.95;;;4.60;99.90;;;;;;4132601;28;20042;-89
2021/01/23 04:54:51;;;;;;;0.85;0.38;;;4.60;99.90;;;;;;4137063;28;20138;-89
2021/01/23 04:56:52;;;;;;;0.10;0.10;;;4.60;99.90;;;;;;4137699;28;20053;-90
2021/01/23 04:58:55;;;;;;;0.38;0.38;;;4.50;99.90;;;;;;4147678;28;20046;-90
2021/01/23 05:00:56;;;;;;;0.10;0.10;;;4.50;99.90;;;;;;4120992;28;20058;-89
2021/01/23 05:02:58;;;;;;;0.35;0.30;;;4.50;99.90;;;;;;4122357;28;20069;-89
2021/01/23 05:05:02;;;;;;;0.20;0.20;;;4.50;99.90;;;;;;4119282;28;20466;-89
2021/01/23 05:07:03;;;;;;;0.10;0.10;;;4.50;99.90;;;;;;4150527;28;20056;-89
2021/01/23 05:09:06;;;;;;;0.20;0.20;;;4.50;99.90;;;;;;4140938;28;20133;-89
2021/01/23 05:11:08;;;;;;;0.57;0.57;;;4.50;99.90;;;;;;4144312;28;20153;-90
2021/01/23 05:13:16;;;;;;;0.20;0.20;;;4.50;99.90;;;;;;4120186;28;20046;-89
2021/01/23 05:15:24;;;;;;;0.57;0.30;;;4.40;99.90;;;;;;4132895;28;20064;-89
2021/01/23 05:17:25;;;;;;;0.30;0.10;;;4.40;99.90;;;;;;4133985;28;20519;-89
2021/01/23 05:19:39;;;;;;;0.38;0.38;;;4.40;99.90;;;;;;4135946;28;20050;-89
2021/01/23 05:21:40;;;;;;;0.82;0.30;;;4.20;99.90;;;;;;4120725;28;20055;-89
2021/01/23 05:23:42;;;;;;;0.50;0.22;;;4.20;99.90;;;;;;4108572;28;20052;-89
2021/01/23 05:25:44;;;;;;;0.40;0.25;;;4.20;99.90;;;;;;4117543;28;20047;-89
2021/01/23 05:27:45;;;;;;;0.30;0.30;;;4.20;99.90;;;;;;4120190;28;20137;-89
2021/01/23 05:30:13;;;;;;;0.10;0.10;;;4.20;99.90;;;;;;4120594;28;20046;-89
2021/01/23 05:32:15;;;;;;;1.20;1.10;;;4.20;99.90;;;;;;4130036;28;20133;-88
2021/01/23 05:34:32;;;;;;;1.45;0.63;;;4.10;99.90;;;;;;4140817;28;20054;-89
2021/01/23 05:36:40;;;;;;;0.57;0.57;;;4.10;99.90;;;;;;4121900;28;20054;-89
2021/01/23 05:38:42;;;;;;;0.20;0.20;;;4.10;99.90;;;;;;4128810;28;20578;-89
2021/01/23 05:40:44;;;;;;;1.25;1.17;;;4.10;99.90;;;;;;4132710;28;20054;-89
2021/01/23 05:42:45;;;;;;;0.55;0.55;;;4.00;99.90;;;;;;4117668;28;20416;-89
2021/01/23 05:45:05;;;;;;;0.65;0.30;;;4.00;99.90;;;;;;4119726;28;20046;-89
2021/01/23 05:47:25;;;;;;;1.23;0.75;;;4.00;99.90;;;;;;4163145;28;20042;-89
2021/01/23 05:49:27;;;;;;;0.10;0.10;;;4.00;99.90;;;;;;4144727;28;20486;-89
2021/01/23 05:51:29;;;;;;;1.65;0.63;;;3.90;99.90;;;;;;4138424;28;20542;-89
2021/01/23 05:53:30;;;;;;;0.10;0.10;;;4.00;99.90;;;;;;4124150;28;20080;-90
2021/01/23 05:55:32;;;;;;;0.25;0.15;;;4.00;99.90;;;;;;4132749;28;20499;-90
2021/01/23 05:57:34;;;;;;;1.05;0.40;;;4.00;99.90;;;;;;4121579;28;20051;-89
2021/01/23 05:59:35;;;;;;;0.10;0.10;;;4.00;99.90;;;;;;4122074;28;20096;-88
2021/01/23 06:01:37;;;;;;;0.35;0.35;;;4.00;99.90;;;;;;4130610;28;20054;-89
2021/01/23 06:03:43;;;;;;;1.30;1.23;;;4.00;99.90;;;;;;4136589;28;20050;-89
2021/01/23 06:05:45;;;;;;;0.10;0.10;;;4.00;99.90;;;;;;4123394;28;20070;-89
2021/01/23 06:07:47;;;;;;;0.15;0.15;;;3.90;99.90;;;;;;4131457;28;20545;-90
2021/01/23 06:09:49;;;;;;;2.08;0.25;;;3.90;99.90;;;;;;4123831;28;20454;-89
2021/01/23 06:11:51;;;;;;;0.10;0.10;;;3.90;99.90;;;;;;4143367;28;20088;-89
2021/01/23 06:13:53;;;;;;;0.13;0.13;;;3.90;99.90;;;;;;4117103;28;20055;-90
2021/01/23 06:15:54;;;;;;;1.45;1.30;;;3.90;99.90;;;;;;4120156;28;20067;-89
2021/01/23 06:17:56;;;;;;;0.30;0.30;;;3.80;99.90;;;;;;4109791;28;20082;-89
2021/01/23 06:19:57;;;;;;;0.10;0.10;;;3.80;99.90;;;;;;4129394;28;20137;-89
2021/01/23 06:21:58;;;;;;;0.32;0.32;;;3.80;99.90;;;;;;4119787;28;20046;-89
2021/01/23 06:24:00;;;;;;;0.10;0.10;;;3.70;99.90;;;;;;4130874;28;20056;-89
2021/01/23 06:26:02;;;;;;;0.25;0.25;;;3.70;99.90;;;;;;4132898;28;20050;-89
2021/01/23 06:28:03;;;;;;;0.20;0.13;;;3.80;99.90;;;;;;4121003;28;20062;-89
2021/01/23 06:30:28;;;;;;;0.40;0.20;;;3.80;99.90;;;;;;4141100;28;20064;-89
2021/01/23 06:32:29;;;;;;;0.75;0.25;;;3.70;99.90;;;;;;4123779;28;20446;-90
2021/01/23 06:34:30;;;;;;;0.32;0.32;;;3.70;99.90;;;;;;4117849;28;20602;-89
2021/01/23 06:36:32;;;;;;;0.47;0.17;;;3.70;99.90;;;;;;4133988;28;20054;-89
2021/01/23 06:38:34;;;;;;;4.70;0.40;;;3.60;99.90;;;;;;4134000;28;20061;-89
2021/01/23 06:40:35;;;;;;;0.38;0.30;;;3.70;99.90;;;;;;4133862;28;20058;-89
2021/01/23 06:42:44;;;;;;;0.38;0.38;;;3.70;99.90;;;;;;4135362;28;20072;-89
2021/01/23 06:44:45;;;;;;;0.70;0.50;;;3.70;99.90;;;;;;4131046;28;20202;-89
2021/01/23 06:46:49;;;;;;;3.22;1.75;;;3.70;99.90;;;;;;4163583;28;20049;-89
2021/01/23 06:49:03;;;;;;;0.30;0.30;;;3.70;99.90;;;;;;4151606;28;20538;-89
2021/01/23 06:51:04;;;;;;;0.55;0.55;;;3.60;99.90;;;;;;4135220;28;20046;-89
2021/01/23 06:53:06;;;;;;;3.35;0.50;;;3.70;99.90;;;;;;4114589;28;20073;-88
2021/01/23 06:55:09;;;;;;;0.20;0.20;;;3.70;99.90;;;;;;4136040;28;20077;-90
2021/01/23 06:57:10;;;;;;;0.30;0.30;;;3.70;99.90;;;;;;4135542;28;20057;-90
2021/01/23 06:59:28;;;;;;;0.20;0.20;;;3.70;99.90;;;;;;4130572;28;20054;-86
2021/01/23 07:01:29;;;;;;;0.20;0.20;;;3.70;99.90;;;;;;4159549;28;20151;-84
2021/01/23 07:03:31;;;;;;;0.35;0.35;;;3.60;99.90;;;;;;4152683;28;20075;-84
2021/01/23 07:05:32;;;;;;;1.42;0.47;;;3.60;99.90;;;;;;4148415;28;20050;-84
2021/01/23 07:07:37;;;;;;;0.85;0.43;;;3.60;99.90;;;;;;4148600;28;20046;-84
2021/01/23 07:09:52;;;;;;;0.30;0.30;;;3.60;99.90;;;;;;4150402;28;20057;-82
2021/01/23 07:11:53;;;;;;;5.55;1.33;;;3.60;99.90;;;;;;4151590;28;20472;-85
2021/01/23 07:14:05;;;;;;;0.45;0.38;;;3.60;99.90;;;;;;4149915;28;20054;-84
2021/01/23 07:16:07;;;;;;;0.10;0.10;;;3.60;99.90;;;;;;4159521;28;20046;-84
2021/01/23 07:18:14;;;;;;;0.10;0.10;;;3.60;99.90;;;;;;4159354;28;20442;-83
2021/01/23 07:20:19;;;;;;;1.45;0.95;;;3.50;99.90;;;;;;4149436;28;20048;-84
2021/01/23 07:22:21;;;;;;;2.05;0.47;;;3.50;99.90;;;;;;4146477;28;20053;-85
2021/01/23 07:24:22;;;;;;;0.43;0.40;;;3.50;99.90;;;;;;4150557;28;20502;-84
2021/01/23 07:26:24;;;;;;;0.25;0.10;;;3.60;99.90;;;;;;4150283;28;20045;-83
2021/01/23 07:28:25;;;;;;;0.20;0.10;;;3.50;99.90;;;;;;4137138;28;20066;-86
2021/01/23 07:30:26;;;;;;;0.52;0.10;;;3.50;99.90;;;;;;4153657;28;20038;-86
2021/01/23 07:32:40;;;;;;;0.30;0.20;;;3.50;99.90;;;;;;4151437;28;20462;-85
2021/01/23 07:34:59;;;;;;;0.10;0.10;;;3.50;99.90;;;;;;4151231;28;20053;-87
2021/01/23 07:37:00;;;;;;;0.20;0.13;;;3.50;99.90;;;;;;4152178;28;20054;-82
2021/01/23 07:39:04;;;;;;;0.22;0.22;;;3.50;99.90;;;;;;4121463;28;20057;-85
2021/01/23 07:41:06;;;;;;;0.35;0.35;;;3.50;99.90;;;;;;4135928;28;20494;-84
2021/01/23 07:43:07;;;;;;;1.45;0.35;;;3.50;99.90;;;;;;4137698;28;20061;-84
2021/01/23 07:45:09;;;;;;;0.40;0.40;;;3.50;99.90;;;;;;4153718;28;20054;-83
2021/01/23 07:47:12;;;;;;;0.20;0.10;;;3.50;99.90;;;;;;4149102;28;20045;-86
2021/01/23 07:49:25;;;;;;;0.10;0.10;;;3.50;99.90;;;;;;4153866;28;20050;-85
2021/01/23 07:51:27;;;;;;;0.30;0.20;;;3.50;99.90;;;;;;4153497;28;20038;-86
2021/01/23 07:53:28;;;;;;;0.90;0.50;;;3.50;99.90;;;;;;4151150;28;20148;-84
2021/01/23 07:55:38;;;;;;;0.30;0.30;;;3.50;99.90;;;;;;4152290;28;20050;-85
2021/01/23 07:57:39;;;;;;;1.25;0.85;;;3.50;99.90;;;;;;4154387;28;20060;-87
2021/01/23 07:59:41;;;;;;;1.85;0.68;;;3.50;99.90;;;;;;4152520;28;20055;-87
2021/01/23 08:01:43;;;;;;;0.68;0.43;;;3.50;99.90;;;;;;4151506;28;20053;-86
2021/01/23 08:03:44;;;;;;;0.20;0.20;;;3.50;99.90;;;;;;4153462;28;20077;-84
2021/01/23 08:05:54;;;;;;;0.75;0.30;;;3.60;99.90;;;;;;4154156;28;20052;-87
2021/01/23 08:07:55;;;;;;;0.30;0.30;;;3.60;99.90;;;;;;4134058;28;20582;-84
2021/01/23 08:10:07;;;;;;;0.15;0.15;;;3.70;99.90;;;;;;4154329;28;20054;-83
2021/01/23 08:12:18;;;;;;;0.40;0.40;;;3.70;99.90;;;;;;4150916;28;20064;-83
2021/01/23 08:14:19;;;;;;;3.17;0.40;;;3.80;99.90;;;;;;4160348;28;20601;-85
2021/01/23 08:16:22;;;;;;;0.35;0.10;;;3.80;99.90;;;;;;4152218;28;20542;-83
2021/01/23 08:18:23;;;;;;;0.45;0.20;;;3.80;99.90;;;;;;4153704;28;20498;-84
2021/01/23 08:20:43;;;;;;;0.38;0.38;;;3.90;99.90;;;;;;4149493;28;20056;-84
2021/01/23 08:23:06;;;;;;;1.17;0.65;;;4.00;99.90;;;;;;4149954;28;20046;-84
2021/01/23 08:25:26;;;;;;;0.17;0.10;;;4.00;99.90;;;;;;4153920;28;20057;-84
2021/01/23 08:27:30;;;;;;;1.08;0.22;;;4.10;99.90;;;;;;4151956;28;20061;-83
2021/01/23 08:29:39;;;;;;;0.17;0.17;;;4.10;99.90;;;;;;4134816;28;20072;-83
2021/01/23 08:31:42;;;;;;;1.13;0.77;;;4.10;99.90;;;;;;4133150;28;20054;-84
2021/01/23 08:33:46;;;;;;;0.35;0.28;;;4.20;99.90;;;;;;4153499;28;20046;-84
2021/01/23 08:35:49;;;;;;;0.20;0.20;;;4.30;99.90;;;;;;4136296;28;20050;-83
2021/01/23 08:37:51;;;;;;;0.10;0.10;;;4.30;99.90;;;;;;4117604;28;20614;-83
2021/01/23 08:39:52;;;;;;;0.10;0.10;;;4.30;99.90;;;;;;4152788;28;20136;-85
2021/01/23 08:41:53;;;;;;;0.22;0.20;;;4.30;99.90;;;;;;4153583;28;20045;-84
2021/01/23 08:43:55;;;;;;;1.00;0.35;;;4.40;99.90;;;;;;4149857;28;20491;-84
2021/01/23 08:45:56;;;;;;;0.20;0.20;;;4.40;99.90;;;;;;4153765;28;20057;-85
2021/01/23 08:47:57;;;;;;;0.10;0.10;;;4.50;99.90;;;;;;4153632;28;20486;-84
2021/01/23 08:49:59;;;;;;;1.58;0.47;;;4.50;99.90;;;;;;4149213;28;20509;-84
2021/01/23 08:52:01;;;;;;;0.63;0.30;;;4.50;99.90;;;;;;4152317;28;20132;-83
2021/01/23 08:54:02;;;;;;;0.10;0.10;;;4.50;99.90;;;;;;4153279;28;20041;-84
2021/01/23 08:56:04;;;;;;;0.77;0.45;;;4.50;99.90;;;;;;4148941;28;20120;-88
2021/01/23 08:58:06;;;;;;;0.13;0.10;;;4.40;99.90;;;;;;4153185;28;20048;-87
2021/01/23 09:00:08;;;;;;;0.63;0.32;;;4.50;99.90;;;;;;4153150;28;20486;-84
2021/01/23 09:02:11;;;;;;;0.22;0.22;;;4.50;99.90;;;;;;4148919;28;20037;-88
2021/01/23 09:04:12;;;;;;;0.40;0.40;;;4.50;99.90;;;;;;4154938;28;20085;-87
2021/01/23 09:06:14;;;;;;;0.20;0.20;;;4.60;99.90;;;;;;4154554;28;20096;-84
2021/01/23 09:08:15;;;;;;;0.22;0.10;;;4.60;99.90;;;;;;4147534;28;20046;-87
2021/01/23 09:10:17;;;;;;;0.20;0.20;;;4.60;99.90;;;;;;4160908;28;20403;-86
2021/01/23 09:12:18;;;;;;;0.40;0.40;;;4.60;99.90;;;;;;4155992;28;20301;-86
2021/01/23 09:14:19;;;;;;;0.30;0.20;;;4.60;99.90;;;;;;4148373;28;20045;-85
2021/01/23 09:16:20;;;;;;;0.20;0.20;;;4.60;99.90;;;;;;4153542;28;20065;-86
2021/01/23 09:18:22;;;;;;;0.30;0.30;;;4.50;99.90;;;;;;4153021;28;20042;-82
2021/01/23 09:20:23;;;;;;;0.15;0.10;;;4.50;99.90;;;;;;4149985;28;20097;-86
2021/01/23 09:22:24;;;;;;;0.10;0.10;;;4.50;99.90;;;;;;4151552;28;20546;-88
2021/01/23 09:24:25;;;;;;;1.02;0.43;;;4.60;99.90;;;;;;4152622;28;20045;-85
2021/01/23 09:26:27;;;;;;;1.42;1.33;;;4.60;99.90;;;;;;4133027;28;20052;-86
2021/01/23 09:28:30;;;;;;;0.45;0.45;;;4.60;99.90;;;;;;4150518;28;20052;-91
2021/01/23 09:30:32;;;;;;;1.95;0.52;;;4.60;99.90;;;;;;4135783;28;20058;-87
2021/01/23 09:32:33;;;;;;;4.15;0.85;;;4.60;99.90;;;;;;4149948;28;20061;-90
2021/01/23 09:34:34;;;;;;;0.30;0.30;;;4.50;99.90;;;;;;4117448;28;20057;-84
2021/01/23 09:36:35;;;;;;;0.10;0.10;;;4.60;99.90;;;;;;4152164;28;20081;-85
2021/01/23 09:38:37;;;;;;;0.10;0.10;;;4.60;99.90;;;;;;4144759;28;20085;-84
2021/01/23 09:40:38;;;;;;;0.15;0.15;;;4.60;99.90;;;;;;4159247;28;20524;-86
2021/01/23 09:42:39;;;;;;;0.30;0.30;;;4.70;99.90;;;;;;4145815;28;20042;-88
2021/01/23 09:44:41;;;;;;;0.10;0.10;;;4.70;99.90;;;;;;4141688;28;20058;-86
2021/01/23 09:46:42;;;;;;;0.10;0.10;;;4.80;99.90;;;;;;4146839;28;20137;-86
2021/01/23 09:48:43;;;;;;;0.30;0.30;;;4.80;99.90;;;;;;4142321;28;20080;-82
2021/01/23 09:50:44;;;;;;;0.10;0.10;;;4.80;99.90;;;;;;4145170;28;20080;-86
2021/01/23 09:52:45;;;;;;;0.20;0.20;;;4.80;99.90;;;;;;4146810;28;20049;-83
2021/01/23 09:54:47;;;;;;;0.52;0.52;;;4.90;99.90;;;;;;4143990;28;20132;-83
2021/01/23 09:56:48;;;;;;;0.10;0.10;;;4.90;99.90;;;;;;4145778;28;20045;-83
2021/01/23 09:58:49;;;;;;;0.10;0.10;;;4.90;99.90;;;;;;4146504;28;20045;-82
2021/01/23 10:00:50;;;;;;;0.10;0.10;;;4.90;99.90;;;;;;4144869;28;20060;-86
2021/01/23 10:02:51;;;;;;;0.52;0.30;;;4.90;99.90;;;;;;4145459;28;20442;-86
2021/01/23 10:04:53;;;;;;;0.28;0.28;;;4.90;99.90;;;;;;4147495;28;20060;-86
2021/01/23 10:06:54;;;;;;;0.20;0.20;;;5.00;99.90;;;;;;4146297;28;20132;-83
2021/01/23 10:08:55;;;;;;;1.52;0.52;;;5.00;99.90;;;;;;4145223;28;20450;-81
2021/01/23 10:10:57;;;;;;;0.20;0.20;;;5.10;99.90;;;;;;4146005;28;20045;-82
2021/01/23 10:12:58;;;;;;;0.30;0.30;;;5.20;99.90;;;;;;4145307;28;20065;-82
2021/01/23 10:14:59;;;;;;;0.55;0.20;;;5.20;99.90;;;;;;4144188;28;20422;-82
2021/01/23 10:17:00;;;;;;;0.22;0.22;;;5.20;99.90;;;;;;4146037;28;20049;-83
2021/01/23 10:19:04;;;;;;;0.20;0.20;;;5.20;99.90;;;;;;4145483;28;20092;-83
2021/01/23 10:21:06;;;;;;;0.20;0.20;;;5.20;99.90;;;;;;4144680;28;20041;-82
2021/01/23 10:23:07;;;;;;;0.20;0.20;;;5.30;99.90;;;;;;4146248;28;20129;-83
2021/01/23 10:25:08;;;;;;;0.90;0.85;;;5.30;99.90;;;;;;4147850;28;20050;-82
2021/01/23 10:27:10;;;;;;;0.32;0.32;;;5.30;99.90;;;;;;4126520;28;20052;-81
2021/01/23 10:29:11;;;;;;;0.20;0.20;;;5.30;99.90;;;;;;4147814;28;20124;-83
2021/01/23 10:31:12;;;;;;;0.10;0.10;;;5.30;99.90;;;;;;4152012;28;20132;-82
2021/01/23 10:33:13;;;;;;;0.70;0.43;;;5.30;99.90;;;;;;4134017;28;20518;-83
2021/01/23 10:35:15;;;;;;;0.20;0.20;;;5.30;99.90;;;;;;4146835;28;20453;-82
2021/01/23 10:37:18;;;;;;;0.45;0.20;;;5.40;99.90;;;;;;4155613;28;20502;-82
2021/01/23 10:39:19;;;;;;;0.20;0.20;;;5.40;99.90;;;;;;4155634;28;20481;-83
2021/01/23 10:41:20;;;;;;;0.43;0.20;;;5.40;99.90;;;;;;4147591;28;20075;-82
2021/01/23 10:43:21;;;;;;;0.20;0.20;;;5.40;99.90;;;;;;4151407;28;20077;-82
2021/01/23 10:45:23;;;;;;;0.30;0.30;;;5.40;99.90;;;;;;4151446;28;20481;-82
2021/01/23 10:47:24;;;;;;;0.10;0.10;;;5.40;99.90;;;;;;4146487;28;20046;-82
2021/01/23 10:49:25;;;;;;;0.20;0.20;;;5.30;99.70;;;;;;4151222;28;20050;-83